sensor_id;sensor_type;location;lat;lon;timestamp;temperature;humidity
23063;DHT22;11699;43.704;10.430;2024-01-15T00:02:02;10.50;99.90
23063;DHT22;11699;43.704;10.430;2024-01-15T00:04:30;10.50;99.90
23063;DHT22;11699;43.704;10.430;2024-01-15T00:06:57;10.60;99.90
23063;DHT22;11699;43.704;10.430;2024-01-15T00:09:24;10.60;99.90
23063;DHT22;11699;43.704;10.430;2024-01-15T00:11:53;10.70;99.90
23063;DHT22;11699;43.704;10.430;2024-01-15T00:14:19;10.70;99.90
23063;DHT22;11699;43.704;10.430;2024-01-15T00:16:48;10.60;99.90
23063;DHT22;11699;43.704;10.430;2024-01-15T00:19:17;10.60;99.90
23063;DHT22;11699;43.704;10.430;2024-01-15T00:21:45;10.60;99.90
23063;DHT22;11699;43.704;10.430;2024-01-15T00:24:12;10.60;99.90
23063;DHT22;11699;43.704;10.430;2024-01-15T00:26:39;10.40;99.90
23063;DHT22;11699;43.704;10.430;2024-01-15T00:29:07;10.40;99.90
23063;DHT22;11699;43.704;10.430;2024-01-15T00:31:34;10.40;99.90
23063;DHT22;11699;43.704;10.430;2024-01-15T00:34:03;10.30;99.90
23063;DHT22;11699;43.704;10.430;2024-01-15T00:36:30;10.20;99.90
23063;DHT22;11699;43.704;10.430;2024-01-15T00:38:57;10.20;99.90
23063;DHT22;11699;43.704;10.430;2024-01-15T00:41:25;10.10;99.90
23063;DHT22;11699;43.704;10.430;2024-01-15T00:43:53;9.90;99.90
23063;DHT22;11699;43.704;10.430;2024-01-15T00:46:21;10.00;99.90
23063;DHT22;11699;43.704;10.430;2024-01-15T00:48:48;10.10;99.90
23063;DHT22;11699;43.704;10.430;2024-01-15T00:51:17;10.00;99.90
23063;DHT22;11699;43.704;10.430;2024-01-15T00:53:44;10.10;99.90
23063;DHT22;11699;43.704;10.430;2024-01-15T00:56:11;9.90;99.90
23063;DHT22;11699;43.704;10.430;2024-01-15T00:58:39;9.90;99.90
23063;DHT22;11699;43.704;10.430;2024-01-15T01:01:06;9.70;99.90
23063;DHT22;11699;43.704;10.430;2024-01-15T01:03:33;9.80;99.90
23063;DHT22;11699;43.704;10.430;2024-01-15T01:06:00;9.90;99.90
23063;DHT22;11699;43.704;10.430;2024-01-15T01:08:29;10.00;99.90
23063;DHT22;11699;43.704;10.430;2024-01-15T01:10:56;10.10;99.90
23063;DHT22;11699;43.704;10.430;2024-01-15T01:13:24;9.90;99.90
23063;DHT22;11699;43.704;10.430;2024-01-15T01:15:51;9.80;99.90
23063;DHT22;11699;43.704;10.430;2024-01-15T01:18:18;9.80;99.90
23063;DHT22;11699;43.704;10.430;2024-01-15T01:20:45;9.90;99.90
23063;DHT22;11699;43.704;10.430;2024-01-15T01:23:12;10.00;99.90
23063;DHT22;11699;43.704;10.430;2024-01-15T01:25:41;10.10;99.90
23063;DHT22;11699;43.704;10.430;2024-01-15T01:28:08;10.30;99.90
23063;DHT22;11699;43.704;10.430;2024-01-15T01:30:36;10.30;99.90
23063;DHT22;11699;43.704;10.430;2024-01-15T01:33:04;10.20;99.90
23063;DHT22;11699;43.704;10.430;2024-01-15T01:35:31;10.30;99.90
23063;DHT22;11699;43.704;10.430;2024-01-15T01:37:59;10.30;99.90
23063;DHT22;11699;43.704;10.430;2024-01-15T01:40:26;10.50;99.90
23063;DHT22;11699;43.704;10.430;2024-01-15T01:42:55;10.50;99.90
23063;DHT22;11699;43.704;10.430;2024-01-15T01:45:22;10.20;99.90
23063;DHT22;11699;43.704;10.430;2024-01-15T01:47:49;10.20;99.90
23063;DHT22;11699;43.704;10.430;2024-01-15T01:50:17;10.20;99.90
23063;DHT22;11699;43.704;10.430;2024-01-15T01:52:44;9.90;99.90
23063;DHT22;11699;43.704;10.430;2024-01-15T01:55:11;9.90;99.90
23063;DHT22;11699;43.704;10.430;2024-01-15T01:57:39;9.90;99.90
23063;DHT22;11699;43.704;10.430;2024-01-15T02:00:09;9.70;99.90
23063;DHT22;11699;43.704;10.430;2024-01-15T02:02:37;9.50;99.90
23063;DHT22;11699;43.704;10.430;2024-01-15T02:05:05;9.40;99.90
23063;DHT22;11699;43.704;10.430;2024-01-15T02:07:34;9.50;99.90
23063;DHT22;11699;43.704;10.430;2024-01-15T02:10:02;9.60;99.90
23063;DHT22;11699;43.704;10.430;2024-01-15T02:12:32;9.70;99.90
23063;DHT22;11699;43.704;10.430;2024-01-15T02:14:59;9.50;99.90
23063;DHT22;11699;43.704;10.430;2024-01-15T02:17:28;9.50;99.90
23063;DHT22;11699;43.704;10.430;2024-01-15T02:19:55;9.50;99.90
23063;DHT22;11699;43.704;10.430;2024-01-15T02:22:23;9.70;99.90
23063;DHT22;11699;43.704;10.430;2024-01-15T02:24:51;9.60;99.90
23063;DHT22;11699;43.704;10.430;2024-01-15T02:27:19;9.60;99.90
23063;DHT22;11699;43.704;10.430;2024-01-15T02:29:46;9.60;99.90
23063;DHT22;11699;43.704;10.430;2024-01-15T02:32:14;9.50;99.90
23063;DHT22;11699;43.704;10.430;2024-01-15T02:34:42;9.40;99.90
23063;DHT22;11699;43.704;10.430;2024-01-15T02:37:09;9.60;99.90
23063;DHT22;11699;43.704;10.430;2024-01-15T02:39:36;9.60;99.90
23063;DHT22;11699;43.704;10.430;2024-01-15T02:42:05;9.70;99.90
23063;DHT22;11699;43.704;10.430;2024-01-15T02:44:33;9.60;99.90
23063;DHT22;11699;43.704;10.430;2024-01-15T02:47:00;9.50;99.90
23063;DHT22;11699;43.704;10.430;2024-01-15T02:49:27;9.40;99.90
23063;DHT22;11699;43.704;10.430;2024-01-15T02:51:55;9.40;99.90
23063;DHT22;11699;43.704;10.430;2024-01-15T02:54:22;9.40;99.90
23063;DHT22;11699;43.704;10.430;2024-01-15T02:56:49;9.50;99.90
23063;DHT22;11699;43.704;10.430;2024-01-15T02:59:18;9.60;99.90
23063;DHT22;11699;43.704;10.430;2024-01-15T03:01:45;9.70;99.90
23063;DHT22;11699;43.704;10.430;2024-01-15T03:04:12;9.90;99.90
23063;DHT22;11699;43.704;10.430;2024-01-15T03:06:40;9.70;99.90
23063;DHT22;11699;43.704;10.430;2024-01-15T03:09:07;9.70;99.90
23063;DHT22;11699;43.704;10.430;2024-01-15T03:11:37;9.70;99.90
23063;DHT22;11699;43.704;10.430;2024-01-15T03:14:05;9.70;99.90
23063;DHT22;11699;43.704;10.430;2024-01-15T03:16:33;9.60;99.90
23063;DHT22;11699;43.704;10.430;2024-01-15T03:19:01;9.60;99.90
23063;DHT22;11699;43.704;10.430;2024-01-15T03:21:28;9.60;99.90
23063;DHT22;11699;43.704;10.430;2024-01-15T03:23:56;9.60;99.90
23063;DHT22;11699;43.704;10.430;2024-01-15T03:26:23;9.70;99.90
23063;DHT22;11699;43.704;10.430;2024-01-15T03:28:50;9.90;99.90
23063;DHT22;11699;43.704;10.430;2024-01-15T03:31:18;10.00;99.90
23063;DHT22;11699;43.704;10.430;2024-01-15T03:33:47;10.20;99.90
23063;DHT22;11699;43.704;10.430;2024-01-15T03:36:14;10.30;99.90
23063;DHT22;11699;43.704;10.430;2024-01-15T03:38:41;10.30;99.90
23063;DHT22;11699;43.704;10.430;2024-01-15T03:41:09;10.50;99.90
23063;DHT22;11699;43.704;10.430;2024-01-15T03:43:36;10.60;99.90
23063;DHT22;11699;43.704;10.430;2024-01-15T03:46:03;10.60;99.90
23063;DHT22;11699;43.704;10.430;2024-01-15T03:48:31;10.50;99.90
23063;DHT22;11699;43.704;10.430;2024-01-15T03:51:00;10.50;99.90
23063;DHT22;11699;43.704;10.430;2024-01-15T03:53:27;10.40;99.90
23063;DHT22;11699;43.704;10.430;2024-01-15T03:55:54;10.10;99.90
23063;DHT22;11699;43.704;10.430;2024-01-15T03:58:22;10.00;99.90
23063;DHT22;11699;43.704;10.430;2024-01-15T04:00:49;10.10;99.90
23063;DHT22;11699;43.704;10.430;2024-01-15T04:03:16;10.10;99.90
23063;DHT22;11699;43.704;10.430;2024-01-15T04:05:44;10.20;99.90
23063;DHT22;11699;43.704;10.430;2024-01-15T04:08:12;10.10;99.90
23063;DHT22;11699;43.704;10.430;2024-01-15T04:10:40;10.10;99.90
23063;DHT22;11699;43.704;10.430;2024-01-15T04:13:07;10.10;99.90
23063;DHT22;11699;43.704;10.430;2024-01-15T04:15:34;10.10;99.90
23063;DHT22;11699;43.704;10.430;2024-01-15T04:18:02;10.20;99.90
23063;DHT22;11699;43.704;10.430;2024-01-15T04:20:30;10.20;99.90
23063;DHT22;11699;43.704;10.430;2024-01-15T04:22:57;10.30;99.90
23063;DHT22;11699;43.704;10.430;2024-01-15T04:25:26;10.20;99.90
23063;DHT22;11699;43.704;10.430;2024-01-15T04:27:53;10.20;99.90
23063;DHT22;11699;43.704;10.430;2024-01-15T04:30:21;10.10;99.90
23063;DHT22;11699;43.704;10.430;2024-01-15T04:32:48;10.10;99.90
23063;DHT22;11699;43.704;10.430;2024-01-15T04:35:15;10.10;99.90
23063;DHT22;11699;43.704;10.430;2024-01-15T04:37:43;10.10;99.90
23063;DHT22;11699;43.704;10.430;2024-01-15T04:40:11;10.10;99.90
23063;DHT22;11699;43.704;10.430;2024-01-15T04:42:40;10.00;99.90
23063;DHT22;11699;43.704;10.430;2024-01-15T04:45:08;10.10;99.90
23063;DHT22;11699;43.704;10.430;2024-01-15T04:47:35;10.00;99.90
23063;DHT22;11699;43.704;10.430;2024-01-15T04:50:04;10.10;99.90
23063;DHT22;11699;43.704;10.430;2024-01-15T04:52:31;10.20;99.90
23063;DHT22;11699;43.704;10.430;2024-01-15T04:54:59;10.10;99.90
23063;DHT22;11699;43.704;10.430;2024-01-15T04:57:26;10.20;99.90
23063;DHT22;11699;43.704;10.430;2024-01-15T04:59:55;10.20;99.90
23063;DHT22;11699;43.704;10.430;2024-01-15T05:02:22;10.00;99.90
23063;DHT22;11699;43.704;10.430;2024-01-15T05:04:49;10.00;99.90
23063;DHT22;11699;43.704;10.430;2024-01-15T05:07:17;10.00;99.90
23063;DHT22;11699;43.704;10.430;2024-01-15T05:09:44;9.90;99.90
23063;DHT22;11699;43.704;10.430;2024-01-15T05:12:11;9.90;99.90
23063;DHT22;11699;43.704;10.430;2024-01-15T05:14:39;9.90;99.90
23063;DHT22;11699;43.704;10.430;2024-01-15T05:17:08;9.90;99.90
23063;DHT22;11699;43.704;10.430;2024-01-15T05:19:35;9.80;99.90
23063;DHT22;11699;43.704;10.430;2024-01-15T05:22:03;9.90;99.90
23063;DHT22;11699;43.704;10.430;2024-01-15T05:24:30;9.90;99.90
23063;DHT22;11699;43.704;10.430;2024-01-15T05:26:57;9.90;99.90
23063;DHT22;11699;43.704;10.430;2024-01-15T05:29:25;10.00;99.90
23063;DHT22;11699;43.704;10.430;2024-01-15T05:31:52;10.10;99.90
23063;DHT22;11699;43.704;10.430;2024-01-15T05:34:21;10.30;99.90
23063;DHT22;11699;43.704;10.430;2024-01-15T05:36:48;10.30;99.90
23063;DHT22;11699;43.704;10.430;2024-01-15T05:39:16;10.10;99.90
23063;DHT22;11699;43.704;10.430;2024-01-15T05:41:43;10.00;99.90
23063;DHT22;11699;43.704;10.430;2024-01-15T05:44:11;10.20;99.90
23063;DHT22;11699;43.704;10.430;2024-01-15T05:46:38;10.30;99.90
23063;DHT22;11699;43.704;10.430;2024-01-15T05:49:05;10.40;99.90
23063;DHT22;11699;43.704;10.430;2024-01-15T05:51:34;10.40;99.90
23063;DHT22;11699;43.704;10.430;2024-01-15T05:54:01;10.10;99.90
23063;DHT22;11699;43.704;10.430;2024-01-15T05:56:29;9.70;99.90
23063;DHT22;11699;43.704;10.430;2024-01-15T05:58:56;9.70;99.90
23063;DHT22;11699;43.704;10.430;2024-01-15T06:01:23;10.00;99.90
23063;DHT22;11699;43.704;10.430;2024-01-15T06:03:51;10.20;99.90
23063;DHT22;11699;43.704;10.430;2024-01-15T06:06:19;10.10;99.90
23063;DHT22;11699;43.704;10.430;2024-01-15T06:08:48;9.90;99.90
23063;DHT22;11699;43.704;10.430;2024-01-15T06:11:15;9.90;99.90
23063;DHT22;11699;43.704;10.430;2024-01-15T06:13:42;10.10;99.90
23063;DHT22;11699;43.704;10.430;2024-01-15T06:16:16;10.20;99.90
23063;DHT22;11699;43.704;10.430;2024-01-15T06:18:45;10.40;99.90
23063;DHT22;11699;43.704;10.430;2024-01-15T06:21:12;10.50;99.90
23063;DHT22;11699;43.704;10.430;2024-01-15T06:23:40;10.40;99.90
23063;DHT22;11699;43.704;10.430;2024-01-15T06:26:11;10.30;99.90
23063;DHT22;11699;43.704;10.430;2024-01-15T06:28:38;10.40;99.90
23063;DHT22;11699;43.704;10.430;2024-01-15T06:31:06;10.50;99.90
23063;DHT22;11699;43.704;10.430;2024-01-15T06:33:33;10.50;99.90
23063;DHT22;11699;43.704;10.430;2024-01-15T06:36:00;10.50;99.90
23063;DHT22;11699;43.704;10.430;2024-01-15T06:38:28;10.50;99.90
23063;DHT22;11699;43.704;10.430;2024-01-15T06:40:55;10.60;99.90
23063;DHT22;11699;43.704;10.430;2024-01-15T06:43:24;10.40;99.90
23063;DHT22;11699;43.704;10.430;2024-01-15T06:45:51;10.10;99.90
23063;DHT22;11699;43.704;10.430;2024-01-15T06:48:18;10.20;99.90
23063;DHT22;11699;43.704;10.430;2024-01-15T06:50:46;10.30;99.90
23063;DHT22;11699;43.704;10.430;2024-01-15T06:53:13;10.40;99.90
23063;DHT22;11699;43.704;10.430;2024-01-15T06:55:41;10.20;99.90
23063;DHT22;11699;43.704;10.430;2024-01-15T06:58:08;10.20;99.90
23063;DHT22;11699;43.704;10.430;2024-01-15T07:00:37;10.30;99.90
23063;DHT22;11699;43.704;10.430;2024-01-15T07:03:04;10.40;99.90
23063;DHT22;11699;43.704;10.430;2024-01-15T07:05:32;10.40;99.90
23063;DHT22;11699;43.704;10.430;2024-01-15T07:07:59;10.40;99.90
23063;DHT22;11699;43.704;10.430;2024-01-15T07:10:27;10.20;99.90
23063;DHT22;11699;43.704;10.430;2024-01-15T07:12:54;10.00;99.90
23063;DHT22;11699;43.704;10.430;2024-01-15T07:15:21;10.00;99.90
23063;DHT22;11699;43.704;10.430;2024-01-15T07:17:50;9.90;99.90
23063;DHT22;11699;43.704;10.430;2024-01-15T07:20:17;10.00;99.90
23063;DHT22;11699;43.704;10.430;2024-01-15T07:22:45;10.00;99.90
23063;DHT22;11699;43.704;10.430;2024-01-15T07:25:12;9.70;99.90
23063;DHT22;11699;43.704;10.430;2024-01-15T07:27:40;9.60;99.90
23063;DHT22;11699;43.704;10.430;2024-01-15T07:30:10;9.50;99.90
23063;DHT22;11699;43.704;10.430;2024-01-15T07:32:38;9.60;99.90
23063;DHT22;11699;43.704;10.430;2024-01-15T07:35:08;9.50;99.90
23063;DHT22;11699;43.704;10.430;2024-01-15T07:37:36;9.50;99.90
23063;DHT22;11699;43.704;10.430;2024-01-15T07:40:04;9.50;99.90
23063;DHT22;11699;43.704;10.430;2024-01-15T07:42:32;9.60;99.90
23063;DHT22;11699;43.704;10.430;2024-01-15T07:45:00;9.60;99.90
23063;DHT22;11699;43.704;10.430;2024-01-15T07:47:27;9.60;99.90
23063;DHT22;11699;43.704;10.430;2024-01-15T07:49:55;9.70;99.90
23063;DHT22;11699;43.704;10.430;2024-01-15T07:52:24;9.70;99.90
23063;DHT22;11699;43.704;10.430;2024-01-15T07:54:51;9.80;99.90
23063;DHT22;11699;43.704;10.430;2024-01-15T07:57:18;9.90;99.90
23063;DHT22;11699;43.704;10.430;2024-01-15T07:59:46;9.90;99.90
23063;DHT22;11699;43.704;10.430;2024-01-15T08:02:13;10.00;99.90
23063;DHT22;11699;43.704;10.430;2024-01-15T08:04:40;10.00;99.90
23063;DHT22;11699;43.704;10.430;2024-01-15T08:07:08;9.90;99.90
23063;DHT22;11699;43.704;10.430;2024-01-15T08:09:37;9.90;99.90
23063;DHT22;11699;43.704;10.430;2024-01-15T08:12:04;10.10;99.90
23063;DHT22;11699;43.704;10.430;2024-01-15T08:14:32;10.20;99.90
23063;DHT22;11699;43.704;10.430;2024-01-15T08:16:59;10.00;99.90
23063;DHT22;11699;43.704;10.430;2024-01-15T08:19:27;10.10;99.90
23063;DHT22;11699;43.704;10.430;2024-01-15T08:21:54;10.40;99.90
23063;DHT22;11699;43.704;10.430;2024-01-15T08:24:21;10.50;99.90
23063;DHT22;11699;43.704;10.430;2024-01-15T08:26:50;10.30;99.90
23063;DHT22;11699;43.704;10.430;2024-01-15T08:29:17;10.30;99.90
23063;DHT22;11699;43.704;10.430;2024-01-15T08:31:46;10.40;99.90
23063;DHT22;11699;43.704;10.430;2024-01-15T08:34:14;10.60;99.90
23063;DHT22;11699;43.704;10.430;2024-01-15T08:36:41;10.70;99.90
23063;DHT22;11699;43.704;10.430;2024-01-15T08:39:08;10.70;99.90
23063;DHT22;11699;43.704;10.430;2024-01-15T08:41:36;10.70;99.90
23063;DHT22;11699;43.704;10.430;2024-01-15T08:44:04;10.90;99.90
23063;DHT22;11699;43.704;10.430;2024-01-15T08:46:32;10.80;99.90
23063;DHT22;11699;43.704;10.430;2024-01-15T08:48:59;11.00;99.90
23063;DHT22;11699;43.704;10.430;2024-01-15T08:51:26;11.20;99.90
23063;DHT22;11699;43.704;10.430;2024-01-15T08:53:53;11.20;99.90
23063;DHT22;11699;43.704;10.430;2024-01-15T08:56:21;11.40;99.90
23063;DHT22;11699;43.704;10.430;2024-01-15T08:58:48;11.40;99.90
23063;DHT22;11699;43.704;10.430;2024-01-15T09:01:17;11.50;99.90
23063;DHT22;11699;43.704;10.430;2024-01-15T09:03:44;11.70;99.90
23063;DHT22;11699;43.704;10.430;2024-01-15T09:06:14;11.80;99.90
23063;DHT22;11699;43.704;10.430;2024-01-15T09:08:41;11.90;99.90
23063;DHT22;11699;43.704;10.430;2024-01-15T09:11:09;11.80;99.90
23063;DHT22;11699;43.704;10.430;2024-01-15T09:13:36;11.50;99.90
23063;DHT22;11699;43.704;10.430;2024-01-15T09:16:04;11.60;99.90
23063;DHT22;11699;43.704;10.430;2024-01-15T09:18:33;11.80;99.90
23063;DHT22;11699;43.704;10.430;2024-01-15T09:21:00;12.20;99.90
23063;DHT22;11699;43.704;10.430;2024-01-15T09:23:27;12.40;99.90
23063;DHT22;11699;43.704;10.430;2024-01-15T09:25:55;12.40;99.90
23063;DHT22;11699;43.704;10.430;2024-01-15T09:28:22;12.40;99.90
23063;DHT22;11699;43.704;10.430;2024-01-15T09:30:50;12.50;99.90
23063;DHT22;11699;43.704;10.430;2024-01-15T09:33:17;12.70;99.90
23063;DHT22;11699;43.704;10.430;2024-01-15T09:35:46;12.60;99.90
23063;DHT22;11699;43.704;10.430;2024-01-15T09:38:13;12.50;99.90
23063;DHT22;11699;43.704;10.430;2024-01-15T09:40:43;12.70;99.90
23063;DHT22;11699;43.704;10.430;2024-01-15T09:43:12;12.90;99.90
23063;DHT22;11699;43.704;10.430;2024-01-15T09:45:40;13.10;99.90
23063;DHT22;11699;43.704;10.430;2024-01-15T09:48:08;13.40;99.90
23063;DHT22;11699;43.704;10.430;2024-01-15T09:50:35;13.60;99.90
23063;DHT22;11699;43.704;10.430;2024-01-15T09:53:05;13.70;99.90
23063;DHT22;11699;43.704;10.430;2024-01-15T09:55:32;13.80;99.90
23063;DHT22;11699;43.704;10.430;2024-01-15T09:58:00;13.80;99.90
23063;DHT22;11699;43.704;10.430;2024-01-15T10:00:29;13.90;99.90
23063;DHT22;11699;43.704;10.430;2024-01-15T10:02:57;14.00;99.90
23063;DHT22;11699;43.704;10.430;2024-01-15T10:05:26;13.80;99.90
23063;DHT22;11699;43.704;10.430;2024-01-15T10:07:54;13.90;99.90
23063;DHT22;11699;43.704;10.430;2024-01-15T10:10:24;14.30;99.90
23063;DHT22;11699;43.704;10.430;2024-01-15T10:12:52;14.50;99.90
23063;DHT22;11699;43.704;10.430;2024-01-15T10:15:22;14.70;99.90
23063;DHT22;11699;43.704;10.430;2024-01-15T10:17:52;14.70;99.90
23063;DHT22;11699;43.704;10.430;2024-01-15T10:20:20;14.80;99.90
23063;DHT22;11699;43.704;10.430;2024-01-15T10:22:50;15.20;99.90
23063;DHT22;11699;43.704;10.430;2024-01-15T10:25:17;15.40;99.90
23063;DHT22;11699;43.704;10.430;2024-01-15T10:27:59;15.30;99.90
23063;DHT22;11699;43.704;10.430;2024-01-15T10:30:27;15.40;99.90
23063;DHT22;11699;43.704;10.430;2024-01-15T10:32:58;15.20;99.90
23063;DHT22;11699;43.704;10.430;2024-01-15T10:35:28;15.00;99.90
23063;DHT22;11699;43.704;10.430;2024-01-15T10:37:56;14.80;99.90
23063;DHT22;11699;43.704;10.430;2024-01-15T10:40:23;14.70;99.90
23063;DHT22;11699;43.704;10.430;2024-01-15T10:42:51;14.90;99.90
23063;DHT22;11699;43.704;10.430;2024-01-15T10:45:20;15.00;99.90
23063;DHT22;11699;43.704;10.430;2024-01-15T10:47:47;15.10;99.90
23063;DHT22;11699;43.704;10.430;2024-01-15T10:50:15;15.20;99.90
23063;DHT22;11699;43.704;10.430;2024-01-15T10:52:43;15.50;99.90
23063;DHT22;11699;43.704;10.430;2024-01-15T10:55:10;15.50;99.90
23063;DHT22;11699;43.704;10.430;2024-01-15T10:57:38;15.40;99.90
23063;DHT22;11699;43.704;10.430;2024-01-15T11:00:06;15.50;99.90
23063;DHT22;11699;43.704;10.430;2024-01-15T11:02:36;15.50;99.90
23063;DHT22;11699;43.704;10.430;2024-01-15T11:05:05;15.50;99.90
23063;DHT22;11699;43.704;10.430;2024-01-15T11:07:32;15.50;99.90
23063;DHT22;11699;43.704;10.430;2024-01-15T11:09:59;15.40;99.90
23063;DHT22;11699;43.704;10.430;2024-01-15T11:12:27;15.20;99.90
23063;DHT22;11699;43.704;10.430;2024-01-15T11:15:01;15.30;99.90
23063;DHT22;11699;43.704;10.430;2024-01-15T11:18:00;15.30;99.90
23063;DHT22;11699;43.704;10.430;2024-01-15T11:20:31;15.30;99.90
23063;DHT22;11699;43.704;10.430;2024-01-15T11:22:58;15.30;99.90
23063;DHT22;11699;43.704;10.430;2024-01-15T11:25:34;15.10;99.90
23063;DHT22;11699;43.704;10.430;2024-01-15T11:28:04;15.00;99.90
23063;DHT22;11699;43.704;10.430;2024-01-15T11:30:31;15.00;99.90
23063;DHT22;11699;43.704;10.430;2024-01-15T11:33:03;14.90;99.90
23063;DHT22;11699;43.704;10.430;2024-01-15T11:35:48;14.90;99.90
23063;DHT22;11699;43.704;10.430;2024-01-15T11:38:27;14.80;99.90
23063;DHT22;11699;43.704;10.430;2024-01-15T11:40:55;14.70;99.90
23063;DHT22;11699;43.704;10.430;2024-01-15T11:43:22;14.60;99.90
23063;DHT22;11699;43.704;10.430;2024-01-15T11:45:52;14.60;99.90
23063;DHT22;11699;43.704;10.430;2024-01-15T11:48:21;14.70;99.90
23063;DHT22;11699;43.704;10.430;2024-01-15T11:50:51;14.80;99.90
23063;DHT22;11699;43.704;10.430;2024-01-15T11:53:27;14.60;99.90
23063;DHT22;11699;43.704;10.430;2024-01-15T11:55:58;14.50;99.90
23063;DHT22;11699;43.704;10.430;2024-01-15T11:58:26;14.70;99.90
23063;DHT22;11699;43.704;10.430;2024-01-15T12:00:53;14.70;99.90
23063;DHT22;11699;43.704;10.430;2024-01-15T12:03:23;14.50;99.90
23063;DHT22;11699;43.704;10.430;2024-01-15T12:05:52;14.20;99.90
23063;DHT22;11699;43.704;10.430;2024-01-15T12:08:23;14.20;99.90
23063;DHT22;11699;43.704;10.430;2024-01-15T12:10:51;14.10;99.90
23063;DHT22;11699;43.704;10.430;2024-01-15T12:13:18;14.40;99.90
23063;DHT22;11699;43.704;10.430;2024-01-15T12:15:47;14.30;99.90
23063;DHT22;11699;43.704;10.430;2024-01-15T12:18:16;14.50;99.90
23063;DHT22;11699;43.704;10.430;2024-01-15T12:20:45;14.60;99.90
23063;DHT22;11699;43.704;10.430;2024-01-15T12:23:13;14.70;99.90
23063;DHT22;11699;43.704;10.430;2024-01-15T12:25:41;14.80;99.90
23063;DHT22;11699;43.704;10.430;2024-01-15T12:28:08;15.00;99.90
23063;DHT22;11699;43.704;10.430;2024-01-15T12:30:36;15.30;99.90
23063;DHT22;11699;43.704;10.430;2024-01-15T12:33:05;15.20;99.90
23063;DHT22;11699;43.704;10.430;2024-01-15T12:35:33;15.00;99.90
23063;DHT22;11699;43.704;10.430;2024-01-15T12:38:03;15.10;99.90
23063;DHT22;11699;43.704;10.430;2024-01-15T12:40:31;14.80;99.90
23063;DHT22;11699;43.704;10.430;2024-01-15T12:42:59;14.60;99.90
23063;DHT22;11699;43.704;10.430;2024-01-15T12:45:26;14.60;99.90
23063;DHT22;11699;43.704;10.430;2024-01-15T12:47:54;14.30;99.90
23063;DHT22;11699;43.704;10.430;2024-01-15T12:50:24;14.20;99.90
23063;DHT22;11699;43.704;10.430;2024-01-15T12:52:51;14.20;99.90
23063;DHT22;11699;43.704;10.430;2024-01-15T12:55:20;14.20;99.90
23063;DHT22;11699;43.704;10.430;2024-01-15T12:57:47;14.20;99.90
23063;DHT22;11699;43.704;10.430;2024-01-15T13:00:16;14.20;99.90
23063;DHT22;11699;43.704;10.430;2024-01-15T13:02:43;14.30;99.90
23063;DHT22;11699;43.704;10.430;2024-01-15T13:05:11;14.50;99.90
23063;DHT22;11699;43.704;10.430;2024-01-15T13:07:38;14.50;99.90
23063;DHT22;11699;43.704;10.430;2024-01-15T13:10:07;14.50;99.90
23063;DHT22;11699;43.704;10.430;2024-01-15T13:12:37;14.40;99.90
23063;DHT22;11699;43.704;10.430;2024-01-15T13:15:04;14.40;99.90
23063;DHT22;11699;43.704;10.430;2024-01-15T13:17:37;14.20;99.90
23063;DHT22;11699;43.704;10.430;2024-01-15T13:20:06;14.20;99.90
23063;DHT22;11699;43.704;10.430;2024-01-15T13:22:34;14.20;99.90
23063;DHT22;11699;43.704;10.430;2024-01-15T13:25:01;14.30;99.90
23063;DHT22;11699;43.704;10.430;2024-01-15T13:27:30;14.30;99.90
23063;DHT22;11699;43.704;10.430;2024-01-15T13:29:58;14.20;99.90
23063;DHT22;11699;43.704;10.430;2024-01-15T13:32:27;14.30;99.90
23063;DHT22;11699;43.704;10.430;2024-01-15T13:34:55;14.20;99.90
23063;DHT22;11699;43.704;10.430;2024-01-15T13:37:23;14.10;99.90
23063;DHT22;11699;43.704;10.430;2024-01-15T13:39:50;14.20;99.90
23063;DHT22;11699;43.704;10.430;2024-01-15T13:42:18;14.10;99.90
23063;DHT22;11699;43.704;10.430;2024-01-15T13:44:47;14.10;99.90
23063;DHT22;11699;43.704;10.430;2024-01-15T13:47:16;14.10;99.90
23063;DHT22;11699;43.704;10.430;2024-01-15T13:49:43;14.00;99.90
23063;DHT22;11699;43.704;10.430;2024-01-15T13:52:11;13.80;99.90
23063;DHT22;11699;43.704;10.430;2024-01-15T13:54:39;13.70;99.90
23063;DHT22;11699;43.704;10.430;2024-01-15T13:57:06;13.60;99.90
23063;DHT22;11699;43.704;10.430;2024-01-15T13:59:34;13.50;99.90
23063;DHT22;11699;43.704;10.430;2024-01-15T14:02:01;13.50;99.90
23063;DHT22;11699;43.704;10.430;2024-01-15T14:04:30;13.50;99.90
23063;DHT22;11699;43.704;10.430;2024-01-15T14:06:57;13.60;99.90
23063;DHT22;11699;43.704;10.430;2024-01-15T14:09:25;13.50;99.90
23063;DHT22;11699;43.704;10.430;2024-01-15T14:11:52;13.60;99.90
23063;DHT22;11699;43.704;10.430;2024-01-15T14:14:20;13.70;99.90
23063;DHT22;11699;43.704;10.430;2024-01-15T14:16:47;13.70;99.90
23063;DHT22;11699;43.704;10.430;2024-01-15T14:19:14;13.50;99.90
23063;DHT22;11699;43.704;10.430;2024-01-15T14:21:43;13.50;99.90
23063;DHT22;11699;43.704;10.430;2024-01-15T14:24:10;13.80;99.90
23063;DHT22;11699;43.704;10.430;2024-01-15T14:26:38;14.00;99.90
23063;DHT22;11699;43.704;10.430;2024-01-15T14:29:05;14.00;99.90
23063;DHT22;11699;43.704;10.430;2024-01-15T14:31:32;14.10;99.90
23063;DHT22;11699;43.704;10.430;2024-01-15T14:34:00;14.10;99.90
23063;DHT22;11699;43.704;10.430;2024-01-15T14:36:28;13.90;99.90
23063;DHT22;11699;43.704;10.430;2024-01-15T14:38:58;13.80;99.90
23063;DHT22;11699;43.704;10.430;2024-01-15T14:41:25;13.60;99.90
23063;DHT22;11699;43.704;10.430;2024-01-15T14:43:52;13.60;99.90
23063;DHT22;11699;43.704;10.430;2024-01-15T14:46:20;13.50;99.90
23063;DHT22;11699;43.704;10.430;2024-01-15T14:48:48;13.50;99.90
23063;DHT22;11699;43.704;10.430;2024-01-15T14:51:15;13.50;99.90
23063;DHT22;11699;43.704;10.430;2024-01-15T14:53:42;13.40;99.90
23063;DHT22;11699;43.704;10.430;2024-01-15T14:56:11;13.50;99.90
23063;DHT22;11699;43.704;10.430;2024-01-15T14:58:39;13.30;99.90
23063;DHT22;11699;43.704;10.430;2024-01-15T15:01:06;13.30;99.90
23063;DHT22;11699;43.704;10.430;2024-01-15T15:03:33;13.30;99.90
23063;DHT22;11699;43.704;10.430;2024-01-15T15:06:00;13.30;99.90
23063;DHT22;11699;43.704;10.430;2024-01-15T15:08:27;13.40;99.90
23063;DHT22;11699;43.704;10.430;2024-01-15T15:10:55;13.50;99.90
23063;DHT22;11699;43.704;10.430;2024-01-15T15:13:24;13.50;99.90
23063;DHT22;11699;43.704;10.430;2024-01-15T15:15:51;13.40;99.90
23063;DHT22;11699;43.704;10.430;2024-01-15T15:18:19;13.40;99.90
23063;DHT22;11699;43.704;10.430;2024-01-15T15:20:47;13.40;99.90
23063;DHT22;11699;43.704;10.430;2024-01-15T15:23:15;13.20;99.90
23063;DHT22;11699;43.704;10.430;2024-01-15T15:25:42;13.10;99.90